sensor_id;sensor_type;location;lat;lon;timestamp;temperature;humidity
12819;DHT22;6474;53.474;9.894;2023-03-13T00:01:11;6.30;90.40
12819;DHT22;6474;53.474;9.894;2023-03-13T00:03:42;6.30;90.40
12819;DHT22;6474;53.474;9.894;2023-03-13T00:06:10;6.30;90.40
12819;DHT22;6474;53.474;9.894;2023-03-13T00:08:39;6.30;90.40
12819;DHT22;6474;53.474;9.894;2023-03-13T00:11:09;6.30;90.70
12819;DHT22;6474;53.474;9.894;2023-03-13T00:13:38;6.30;90.30
12819;DHT22;6474;53.474;9.894;2023-03-13T00:16:08;6.30;90.30
12819;DHT22;6474;53.474;9.894;2023-03-13T00:18:36;6.40;90.30
12819;DHT22;6474;53.474;9.894;2023-03-13T00:21:07;6.30;90.30
12819;DHT22;6474;53.474;9.894;2023-03-13T00:23:37;6.40;90.40
12819;DHT22;6474;53.474;9.894;2023-03-13T00:26:07;6.40;90.30
12819;DHT22;6474;53.474;9.894;2023-03-13T00:28:36;6.30;90.30
12819;DHT22;6474;53.474;9.894;2023-03-13T00:31:06;6.30;90.20
12819;DHT22;6474;53.474;9.894;2023-03-13T00:33:36;6.30;90.30
12819;DHT22;6474;53.474;9.894;2023-03-13T00:36:07;6.40;90.40
12819;DHT22;6474;53.474;9.894;2023-03-13T00:38:36;6.30;90.30
12819;DHT22;6474;53.474;9.894;2023-03-13T00:41:06;6.40;90.40
12819;DHT22;6474;53.474;9.894;2023-03-13T00:43:34;6.40;90.40
12819;DHT22;6474;53.474;9.894;2023-03-13T00:46:02;6.40;90.40
12819;DHT22;6474;53.474;9.894;2023-03-13T00:48:31;6.40;90.40
12819;DHT22;6474;53.474;9.894;2023-03-13T00:51:00;6.50;90.40
12819;DHT22;6474;53.474;9.894;2023-03-13T00:53:29;6.50;90.40
12819;DHT22;6474;53.474;9.894;2023-03-13T00:55:59;6.50;90.40
12819;DHT22;6474;53.474;9.894;2023-03-13T00:58:28;6.50;90.50
12819;DHT22;6474;53.474;9.894;2023-03-13T01:01:04;6.50;90.40
12819;DHT22;6474;53.474;9.894;2023-03-13T01:03:32;6.50;90.80
12819;DHT22;6474;53.474;9.894;2023-03-13T01:06:01;6.60;90.40
12819;DHT22;6474;53.474;9.894;2023-03-13T01:08:31;6.60;90.50
12819;DHT22;6474;53.474;9.894;2023-03-13T01:11:00;6.60;90.40
12819;DHT22;6474;53.474;9.894;2023-03-13T01:13:29;6.60;90.40
12819;DHT22;6474;53.474;9.894;2023-03-13T01:16:01;6.70;90.50
12819;DHT22;6474;53.474;9.894;2023-03-13T01:18:30;6.70;90.50
12819;DHT22;6474;53.474;9.894;2023-03-13T01:20:58;6.70;90.80
12819;DHT22;6474;53.474;9.894;2023-03-13T01:23:26;6.70;90.40
12819;DHT22;6474;53.474;9.894;2023-03-13T01:25:56;6.70;90.40
12819;DHT22;6474;53.474;9.894;2023-03-13T01:28:25;6.70;90.40
12819;DHT22;6474;53.474;9.894;2023-03-13T01:30:53;6.70;90.40
12819;DHT22;6474;53.474;9.894;2023-03-13T01:33:21;6.80;90.40
12819;DHT22;6474;53.474;9.894;2023-03-13T01:35:49;6.80;90.30
12819;DHT22;6474;53.474;9.894;2023-03-13T01:38:17;6.80;90.30
12819;DHT22;6474;53.474;9.894;2023-03-13T01:40:47;6.80;90.20
12819;DHT22;6474;53.474;9.894;2023-03-13T01:43:19;6.80;90.10
12819;DHT22;6474;53.474;9.894;2023-03-13T01:46:03;6.80;90.20
12819;DHT22;6474;53.474;9.894;2023-03-13T01:48:36;6.80;90.30
12819;DHT22;6474;53.474;9.894;2023-03-13T01:51:09;6.90;90.20
12819;DHT22;6474;53.474;9.894;2023-03-13T01:53:41;6.90;90.20
12819;DHT22;6474;53.474;9.894;2023-03-13T01:56:13;6.90;90.20
12819;DHT22;6474;53.474;9.894;2023-03-13T01:58:47;6.90;90.20
12819;DHT22;6474;53.474;9.894;2023-03-13T02:01:16;6.90;90.10
12819;DHT22;6474;53.474;9.894;2023-03-13T02:03:46;6.90;90.10
12819;DHT22;6474;53.474;9.894;2023-03-13T02:06:15;6.90;90.10
12819;DHT22;6474;53.474;9.894;2023-03-13T02:08:47;6.90;90.10
12819;DHT22;6474;53.474;9.894;2023-03-13T02:11:23;6.90;90.10
12819;DHT22;6474;53.474;9.894;2023-03-13T02:13:55;7.00;90.20
12819;DHT22;6474;53.474;9.894;2023-03-13T02:16:24;7.00;90.20
12819;DHT22;6474;53.474;9.894;2023-03-13T02:18:53;7.00;90.20
12819;DHT22;6474;53.474;9.894;2023-03-13T02:21:37;7.00;90.20
12819;DHT22;6474;53.474;9.894;2023-03-13T02:24:13;7.00;90.20
12819;DHT22;6474;53.474;9.894;2023-03-13T02:26:47;7.00;90.20
12819;DHT22;6474;53.474;9.894;2023-03-13T02:29:15;7.00;90.20
12819;DHT22;6474;53.474;9.894;2023-03-13T02:31:45;7.00;90.20
12819;DHT22;6474;53.474;9.894;2023-03-13T02:34:16;7.00;90.20
12819;DHT22;6474;53.474;9.894;2023-03-13T02:36:46;7.00;90.20
12819;DHT22;6474;53.474;9.894;2023-03-13T02:39:17;7.00;90.20
12819;DHT22;6474;53.474;9.894;2023-03-13T02:41:49;7.00;90.20
12819;DHT22;6474;53.474;9.894;2023-03-13T02:44:18;7.00;90.20
12819;DHT22;6474;53.474;9.894;2023-03-13T02:46:48;7.00;90.30
12819;DHT22;6474;53.474;9.894;2023-03-13T02:49:23;7.10;90.40
12819;DHT22;6474;53.474;9.894;2023-03-13T02:51:52;7.10;90.20
12819;DHT22;6474;53.474;9.894;2023-03-13T02:54:24;7.10;90.20
12819;DHT22;6474;53.474;9.894;2023-03-13T02:56:56;7.10;90.20
12819;DHT22;6474;53.474;9.894;2023-03-13T02:59:25;7.10;90.20
12819;DHT22;6474;53.474;9.894;2023-03-13T03:01:54;7.10;90.20
12819;DHT22;6474;53.474;9.894;2023-03-13T03:04:23;7.10;90.20
12819;DHT22;6474;53.474;9.894;2023-03-13T03:06:52;7.10;90.20
12819;DHT22;6474;53.474;9.894;2023-03-13T03:09:21;7.10;90.20
12819;DHT22;6474;53.474;9.894;2023-03-13T03:11:49;7.10;90.20
12819;DHT22;6474;53.474;9.894;2023-03-13T03:14:19;7.10;90.20
12819;DHT22;6474;53.474;9.894;2023-03-13T03:16:47;7.10;90.20
12819;DHT22;6474;53.474;9.894;2023-03-13T03:19:15;7.10;90.20
12819;DHT22;6474;53.474;9.894;2023-03-13T03:21:43;7.10;90.20
12819;DHT22;6474;53.474;9.894;2023-03-13T03:24:11;7.10;90.20
12819;DHT22;6474;53.474;9.894;2023-03-13T03:26:39;7.10;90.20
12819;DHT22;6474;53.474;9.894;2023-03-13T03:29:07;7.20;90.30
12819;DHT22;6474;53.474;9.894;2023-03-13T03:31:37;7.20;90.30
12819;DHT22;6474;53.474;9.894;2023-03-13T03:34:06;7.20;90.30
12819;DHT22;6474;53.474;9.894;2023-03-13T03:36:33;7.20;90.30
12819;DHT22;6474;53.474;9.894;2023-03-13T03:39:02;7.20;90.30
12819;DHT22;6474;53.474;9.894;2023-03-13T03:41:31;7.20;90.30
12819;DHT22;6474;53.474;9.894;2023-03-13T03:43:59;7.20;90.30
12819;DHT22;6474;53.474;9.894;2023-03-13T03:46:26;7.20;90.30
12819;DHT22;6474;53.474;9.894;2023-03-13T03:48:56;7.20;90.30
12819;DHT22;6474;53.474;9.894;2023-03-13T03:51:24;7.20;90.30
12819;DHT22;6474;53.474;9.894;2023-03-13T03:53:52;7.20;90.30
12819;DHT22;6474;53.474;9.894;2023-03-13T03:56:20;7.20;90.30
12819;DHT22;6474;53.474;9.894;2023-03-13T03:58:48;7.20;90.30
12819;DHT22;6474;53.474;9.894;2023-03-13T04:01:16;7.20;90.30
12819;DHT22;6474;53.474;9.894;2023-03-13T04:03:44;7.20;90.30
12819;DHT22;6474;53.474;9.894;2023-03-13T04:06:15;7.20;90.30
12819;DHT22;6474;53.474;9.894;2023-03-13T04:08:43;7.20;90.30
12819;DHT22;6474;53.474;9.894;2023-03-13T04:11:11;7.20;90.30
12819;DHT22;6474;53.474;9.894;2023-03-13T04:13:39;7.20;90.30
12819;DHT22;6474;53.474;9.894;2023-03-13T04:16:08;7.20;90.30
12819;DHT22;6474;53.474;9.894;2023-03-13T04:18:36;7.20;90.30
12819;DHT22;6474;53.474;9.894;2023-03-13T04:21:05;7.20;90.30
12819;DHT22;6474;53.474;9.894;2023-03-13T04:23:35;7.20;90.30
12819;DHT22;6474;53.474;9.894;2023-03-13T04:26:03;7.20;90.30
12819;DHT22;6474;53.474;9.894;2023-03-13T04:28:31;7.20;90.30
12819;DHT22;6474;53.474;9.894;2023-03-13T04:30:59;7.20;90.30
12819;DHT22;6474;53.474;9.894;2023-03-13T04:33:27;7.20;90.30
12819;DHT22;6474;53.474;9.894;2023-03-13T04:35:55;7.30;90.30
12819;DHT22;6474;53.474;9.894;2023-03-13T04:38:24;7.30;90.30
12819;DHT22;6474;53.474;9.894;2023-03-13T04:40:53;7.30;90.30
12819;DHT22;6474;53.474;9.894;2023-03-13T04:43:21;7.30;90.30
12819;DHT22;6474;53.474;9.894;2023-03-13T04:45:51;7.30;90.30
12819;DHT22;6474;53.474;9.894;2023-03-13T04:48:20;7.30;90.30
12819;DHT22;6474;53.474;9.894;2023-03-13T04:50:48;7.30;90.30
12819;DHT22;6474;53.474;9.894;2023-03-13T04:53:16;7.30;90.30
12819;DHT22;6474;53.474;9.894;2023-03-13T04:55:44;7.30;90.70
12819;DHT22;6474;53.474;9.894;2023-03-13T04:58:14;7.30;90.30
12819;DHT22;6474;53.474;9.894;2023-03-13T05:00:42;7.30;90.30
12819;DHT22;6474;53.474;9.894;2023-03-13T05:03:10;7.30;90.30
12819;DHT22;6474;53.474;9.894;2023-03-13T05:05:38;7.30;90.30
12819;DHT22;6474;53.474;9.894;2023-03-13T05:08:06;7.30;90.30
12819;DHT22;6474;53.474;9.894;2023-03-13T05:10:36;7.30;90.30
12819;DHT22;6474;53.474;9.894;2023-03-13T05:13:04;7.30;90.30
12819;DHT22;6474;53.474;9.894;2023-03-13T05:15:33;7.30;90.30
12819;DHT22;6474;53.474;9.894;2023-03-13T05:18:01;7.30;90.30
12819;DHT22;6474;53.474;9.894;2023-03-13T05:20:29;7.30;90.30
12819;DHT22;6474;53.474;9.894;2023-03-13T05:22:57;7.30;90.30
12819;DHT22;6474;53.474;9.894;2023-03-13T05:25:25;7.30;90.30
12819;DHT22;6474;53.474;9.894;2023-03-13T05:27:52;7.30;90.30
12819;DHT22;6474;53.474;9.894;2023-03-13T05:30:21;7.40;90.40
12819;DHT22;6474;53.474;9.894;2023-03-13T05:32:50;7.40;90.40
12819;DHT22;6474;53.474;9.894;2023-03-13T05:35:18;7.40;90.40
12819;DHT22;6474;53.474;9.894;2023-03-13T05:37:46;7.40;90.40
12819;DHT22;6474;53.474;9.894;2023-03-13T05:40:14;7.40;90.40
12819;DHT22;6474;53.474;9.894;2023-03-13T05:42:43;7.40;90.40
12819;DHT22;6474;53.474;9.894;2023-03-13T05:45:11;7.50;90.40
12819;DHT22;6474;53.474;9.894;2023-03-13T05:47:39;7.50;90.40
12819;DHT22;6474;53.474;9.894;2023-03-13T05:50:09;7.50;90.40
12819;DHT22;6474;53.474;9.894;2023-03-13T05:52:37;7.50;90.40
12819;DHT22;6474;53.474;9.894;2023-03-13T05:55:05;7.50;90.40
12819;DHT22;6474;53.474;9.894;2023-03-13T05:57:33;7.60;90.50
12819;DHT22;6474;53.474;9.894;2023-03-13T06:00:02;7.60;90.50
12819;DHT22;6474;53.474;9.894;2023-03-13T06:02:30;7.60;90.50
12819;DHT22;6474;53.474;9.894;2023-03-13T06:04:58;7.60;90.50
12819;DHT22;6474;53.474;9.894;2023-03-13T06:07:27;7.60;90.50
12819;DHT22;6474;53.474;9.894;2023-03-13T06:09:55;7.70;90.50
12819;DHT22;6474;53.474;9.894;2023-03-13T06:12:23;7.70;90.50
12819;DHT22;6474;53.474;9.894;2023-03-13T06:14:51;7.80;90.60
12819;DHT22;6474;53.474;9.894;2023-03-13T06:17:18;7.80;90.60
12819;DHT22;6474;53.474;9.894;2023-03-13T06:19:46;7.80;90.60
12819;DHT22;6474;53.474;9.894;2023-03-13T06:22:15;7.80;90.60
12819;DHT22;6474;53.474;9.894;2023-03-13T06:24:45;7.90;90.60
12819;DHT22;6474;53.474;9.894;2023-03-13T06:27:15;8.00;90.70
12819;DHT22;6474;53.474;9.894;2023-03-13T06:29:43;8.00;91.00
12819;DHT22;6474;53.474;9.894;2023-03-13T06:32:11;8.00;90.70
12819;DHT22;6474;53.474;9.894;2023-03-13T06:34:38;8.00;90.70
12819;DHT22;6474;53.474;9.894;2023-03-13T06:37:06;8.00;90.70
12819;DHT22;6474;53.474;9.894;2023-03-13T06:39:34;8.00;90.70
12819;DHT22;6474;53.474;9.894;2023-03-13T06:42:05;8.10;90.70
12819;DHT22;6474;53.474;9.894;2023-03-13T06:44:33;8.10;90.70
12819;DHT22;6474;53.474;9.894;2023-03-13T06:47:01;8.10;90.70
12819;DHT22;6474;53.474;9.894;2023-03-13T06:49:29;8.20;90.70
12819;DHT22;6474;53.474;9.894;2023-03-13T06:51:57;8.20;90.70
12819;DHT22;6474;53.474;9.894;2023-03-13T06:54:25;8.30;90.80
12819;DHT22;6474;53.474;9.894;2023-03-13T06:56:53;8.30;90.80
12819;DHT22;6474;53.474;9.894;2023-03-13T06:59:22;8.40;90.80
12819;DHT22;6474;53.474;9.894;2023-03-13T07:01:51;8.40;90.80
12819;DHT22;6474;53.474;9.894;2023-03-13T07:04:19;8.40;90.80
12819;DHT22;6474;53.474;9.894;2023-03-13T07:06:47;8.40;90.80
12819;DHT22;6474;53.474;9.894;2023-03-13T07:09:14;8.40;90.80
12819;DHT22;6474;53.474;9.894;2023-03-13T07:11:46;8.50;90.90
12819;DHT22;6474;53.474;9.894;2023-03-13T07:14:14;8.50;90.90
12819;DHT22;6474;53.474;9.894;2023-03-13T07:16:45;8.50;90.90
12819;DHT22;6474;53.474;9.894;2023-03-13T07:19:13;8.60;90.90
12819;DHT22;6474;53.474;9.894;2023-03-13T07:21:42;8.60;90.90
12819;DHT22;6474;53.474;9.894;2023-03-13T07:24:10;8.60;90.90
12819;DHT22;6474;53.474;9.894;2023-03-13T07:26:39;8.70;91.00
12819;DHT22;6474;53.474;9.894;2023-03-13T07:29:19;8.70;91.00
12819;DHT22;6474;53.474;9.894;2023-03-13T07:31:49;8.70;91.00
12819;DHT22;6474;53.474;9.894;2023-03-13T07:34:17;8.80;91.00
12819;DHT22;6474;53.474;9.894;2023-03-13T07:36:45;8.80;91.00
12819;DHT22;6474;53.474;9.894;2023-03-13T07:39:13;8.90;91.10
12819;DHT22;6474;53.474;9.894;2023-03-13T07:41:41;8.90;91.10
12819;DHT22;6474;53.474;9.894;2023-03-13T07:44:09;8.90;91.10
12819;DHT22;6474;53.474;9.894;2023-03-13T07:46:37;8.90;91.10
12819;DHT22;6474;53.474;9.894;2023-03-13T07:49:06;9.00;91.10
12819;DHT22;6474;53.474;9.894;2023-03-13T07:51:35;9.00;91.10
12819;DHT22;6474;53.474;9.894;2023-03-13T07:54:10;9.10;91.10
12819;DHT22;6474;53.474;9.894;2023-03-13T07:56:38;9.10;91.10
12819;DHT22;6474;53.474;9.894;2023-03-13T07:59:06;9.20;91.20
12819;DHT22;6474;53.474;9.894;2023-03-13T08:01:35;9.20;91.20
12819;DHT22;6474;53.474;9.894;2023-03-13T08:04:03;9.30;91.30
12819;DHT22;6474;53.474;9.894;2023-03-13T08:06:33;9.30;91.20
12819;DHT22;6474;53.474;9.894;2023-03-13T08:09:02;9.40;91.30
12819;DHT22;6474;53.474;9.894;2023-03-13T08:11:31;9.40;91.20
12819;DHT22;6474;53.474;9.894;2023-03-13T08:13:59;9.50;91.20
12819;DHT22;6474;53.474;9.894;2023-03-13T08:16:29;9.60;91.30
12819;DHT22;6474;53.474;9.894;2023-03-13T08:18:58;9.60;91.20
12819;DHT22;6474;53.474;9.894;2023-03-13T08:21:28;9.70;91.20
12819;DHT22;6474;53.474;9.894;2023-03-13T08:23:59;9.70;91.20
12819;DHT22;6474;53.474;9.894;2023-03-13T08:26:29;9.80;91.30
12819;DHT22;6474;53.474;9.894;2023-03-13T08:28:59;9.80;91.20
12819;DHT22;6474;53.474;9.894;2023-03-13T08:31:29;9.80;91.20
12819;DHT22;6474;53.474;9.894;2023-03-13T08:33:58;9.90;91.20
12819;DHT22;6474;53.474;9.894;2023-03-13T08:36:27;9.90;91.30
12819;DHT22;6474;53.474;9.894;2023-03-13T08:38:59;10.00;90.70
12819;DHT22;6474;53.474;9.894;2023-03-13T08:41:31;10.00;90.70
12819;DHT22;6474;53.474;9.894;2023-03-13T08:43:59;10.00;90.80
12819;DHT22;6474;53.474;9.894;2023-03-13T08:46:28;10.00;90.70
12819;DHT22;6474;53.474;9.894;2023-03-13T08:48:57;10.00;90.70
12819;DHT22;6474;53.474;9.894;2023-03-13T08:51:26;10.10;90.80
12819;DHT22;6474;53.474;9.894;2023-03-13T08:53:55;10.10;90.80
12819;DHT22;6474;53.474;9.894;2023-03-13T08:56:26;10.20;90.80
12819;DHT22;6474;53.474;9.894;2023-03-13T08:58:57;10.20;90.80
12819;DHT22;6474;53.474;9.894;2023-03-13T09:01:28;10.30;90.90
12819;DHT22;6474;53.474;9.894;2023-03-13T09:03:56;10.30;90.90
12819;DHT22;6474;53.474;9.894;2023-03-13T09:06:29;10.40;90.90
12819;DHT22;6474;53.474;9.894;2023-03-13T09:08:58;10.50;90.90
12819;DHT22;6474;53.474;9.894;2023-03-13T09:11:27;10.50;90.90
12819;DHT22;6474;53.474;9.894;2023-03-13T09:13:55;10.60;91.00
12819;DHT22;6474;53.474;9.894;2023-03-13T09:16:26;10.70;91.00
12819;DHT22;6474;53.474;9.894;2023-03-13T09:18:56;10.70;91.00
12819;DHT22;6474;53.474;9.894;2023-03-13T09:21:26;10.70;91.00
12819;DHT22;6474;53.474;9.894;2023-03-13T09:23:54;10.80;91.00
12819;DHT22;6474;53.474;9.894;2023-03-13T09:26:23;10.80;91.10
12819;DHT22;6474;53.474;9.894;2023-03-13T09:28:53;10.90;91.20
12819;DHT22;6474;53.474;9.894;2023-03-13T09:31:22;11.00;91.20
12819;DHT22;6474;53.474;9.894;2023-03-13T09:33:51;11.00;91.10
12819;DHT22;6474;53.474;9.894;2023-03-13T09:36:20;11.00;91.10
12819;DHT22;6474;53.474;9.894;2023-03-13T09:38:50;11.00;91.10
12819;DHT22;6474;53.474;9.894;2023-03-13T09:41:26;11.10;91.10
12819;DHT22;6474;53.474;9.894;2023-03-13T09:44:02;11.10;91.20
12819;DHT22;6474;53.474;9.894;2023-03-13T09:46:37;11.10;91.20
12819;DHT22;6474;53.474;9.894;2023-03-13T09:49:12;11.10;91.20
12819;DHT22;6474;53.474;9.894;2023-03-13T09:51:47;11.10;91.20
12819;DHT22;6474;53.474;9.894;2023-03-13T09:54:23;11.20;91.30
12819;DHT22;6474;53.474;9.894;2023-03-13T09:56:54;11.30;91.30
12819;DHT22;6474;53.474;9.894;2023-03-13T09:59:28;11.40;91.40
12819;DHT22;6474;53.474;9.894;2023-03-13T10:01:59;11.40;91.40
12819;DHT22;6474;53.474;9.894;2023-03-13T10:04:36;11.50;91.40
12819;DHT22;6474;53.474;9.894;2023-03-13T10:07:09;11.60;91.50
12819;DHT22;6474;53.474;9.894;2023-03-13T10:09:37;11.70;91.50
12819;DHT22;6474;53.474;9.894;2023-03-13T10:12:12;11.70;91.40
12819;DHT22;6474;53.474;9.894;2023-03-13T10:14:48;11.80;91.50
12819;DHT22;6474;53.474;9.894;2023-03-13T10:17:30;11.80;91.40
12819;DHT22;6474;53.474;9.894;2023-03-13T10:20:00;11.80;91.40
12819;DHT22;6474;53.474;9.894;2023-03-13T10:22:34;11.80;91.40
12819;DHT22;6474;53.474;9.894;2023-03-13T10:25:06;11.80;91.40
12819;DHT22;6474;53.474;9.894;2023-03-13T10:27:42;11.80;91.40
12819;DHT22;6474;53.474;9.894;2023-03-13T10:30:21;11.90;91.50
12819;DHT22;6474;53.474;9.894;2023-03-13T10:32:52;11.90;91.50
12819;DHT22;6474;53.474;9.894;2023-03-13T10:35:22;12.00;91.60
12819;DHT22;6474;53.474;9.894;2023-03-13T10:38:00;12.00;91.60
12819;DHT22;6474;53.474;9.894;2023-03-13T10:40:29;12.10;91.60
12819;DHT22;6474;53.474;9.894;2023-03-13T10:43:01;12.20;91.60
12819;DHT22;6474;53.474;9.894;2023-03-13T10:45:33;12.30;91.60
12819;DHT22;6474;53.474;9.894;2023-03-13T10:48:11;12.40;91.60
12819;DHT22;6474;53.474;9.894;2023-03-13T10:50:42;12.40;91.60
12819;DHT22;6474;53.474;9.894;2023-03-13T10:53:23;12.50;91.60
12819;DHT22;6474;53.474;9.894;2023-03-13T10:55:52;12.50;91.60
12819;DHT22;6474;53.474;9.894;2023-03-13T10:58:32;12.50;91.60
12819;DHT22;6474;53.474;9.894;2023-03-13T11:01:15;12.60;91.70
12819;DHT22;6474;53.474;9.894;2023-03-13T11:03:45;12.60;91.70
12819;DHT22;6474;53.474;9.894;2023-03-13T11:06:25;12.60;91.70
12819;DHT22;6474;53.474;9.894;2023-03-13T11:09:10;12.60;91.60
12819;DHT22;6474;53.474;9.894;2023-03-13T11:11:45;12.50;91.60
12819;DHT22;6474;53.474;9.894;2023-03-13T11:14:16;12.50;91.60
12819;DHT22;6474;53.474;9.894;2023-03-13T11:16:50;12.50;91.70
12819;DHT22;6474;53.474;9.894;2023-03-13T11:19:27;12.50;91.80
12819;DHT22;6474;53.474;9.894;2023-03-13T11:22:17;12.70;91.80
12819;DHT22;6474;53.474;9.894;2023-03-13T11:24:53;12.70;91.70
12819;DHT22;6474;53.474;9.894;2023-03-13T11:27:27;12.80;91.70
12819;DHT22;6474;53.474;9.894;2023-03-13T11:32:51;12.90;91.60
12819;DHT22;6474;53.474;9.894;2023-03-13T11:35:36;13.00;91.60
12819;DHT22;6474;53.474;9.894;2023-03-13T11:38:10;13.00;91.60
12819;DHT22;6474;53.474;9.894;2023-03-13T11:40:43;13.00;91.60
12819;DHT22;6474;53.474;9.894;2023-03-13T11:43:24;13.00;91.60
12819;DHT22;6474;53.474;9.894;2023-03-13T11:46:03;13.00;91.60
12819;DHT22;6474;53.474;9.894;2023-03-13T11:48:56;13.00;91.80
12819;DHT22;6474;53.474;9.894;2023-03-13T11:51:33;13.00;91.80
12819;DHT22;6474;53.474;9.894;2023-03-13T11:54:26;13.20;91.90
12819;DHT22;6474;53.474;9.894;2023-03-13T11:57:04;13.40;91.90
12819;DHT22;6474;53.474;9.894;2023-03-13T11:59:39;13.50;91.80
12819;DHT22;6474;53.474;9.894;2023-03-13T12:02:19;13.60;91.70
12819;DHT22;6474;53.474;9.894;2023-03-13T12:04:54;13.70;91.60
12819;DHT22;6474;53.474;9.894;2023-03-13T12:07:27;13.70;91.50
12819;DHT22;6474;53.474;9.894;2023-03-13T12:10:00;13.80;91.50
12819;DHT22;6474;53.474;9.894;2023-03-13T12:12:36;13.80;91.50
12819;DHT22;6474;53.474;9.894;2023-03-13T12:15:16;13.90;91.40
12819;DHT22;6474;53.474;9.894;2023-03-13T12:17:49;13.90;91.40
12819;DHT22;6474;53.474;9.894;2023-03-13T12:20:23;14.00;91.40
12819;DHT22;6474;53.474;9.894;2023-03-13T12:22:59;13.90;91.30
12819;DHT22;6474;53.474;9.894;2023-03-13T12:25:33;13.80;91.30
12819;DHT22;6474;53.474;9.894;2023-03-13T12:28:14;13.80;91.70
12819;DHT22;6474;53.474;9.894;2023-03-13T12:30:56;13.70;91.30
12819;DHT22;6474;53.474;9.894;2023-03-13T12:33:30;13.70;91.30
12819;DHT22;6474;53.474;9.894;2023-03-13T12:36:08;13.80;91.40
12819;DHT22;6474;53.474;9.894;2023-03-13T12:38:41;13.90;91.50
12819;DHT22;6474;53.474;9.894;2023-03-13T12:41:18;13.90;91.40
12819;DHT22;6474;53.474;9.894;2023-03-13T12:43:48;14.00;91.40
12819;DHT22;6474;53.474;9.894;2023-03-13T12:46:54;14.00;91.30
12819;DHT22;6474;53.474;9.894;2023-03-13T12:49:54;14.10;91.40
12819;DHT22;6474;53.474;9.894;2023-03-13T12:55:54;14.30;91.40
12819;DHT22;6474;53.474;9.894;2023-03-13T12:58:29;14.40;91.40
12819;DHT22;6474;53.474;9.894;2023-03-13T13:01:01;14.50;91.40
12819;DHT22;6474;53.474;9.894;2023-03-13T13:03:33;14.60;91.30
12819;DHT22;6474;53.474;9.894;2023-03-13T13:06:06;14.60;91.20
12819;DHT22;6474;53.474;9.894;2023-03-13T13:08:38;14.60;91.20
12819;DHT22;6474;53.474;9.894;2023-03-13T13:11:45;14.50;91.10
12819;DHT22;6474;53.474;9.894;2023-03-13T13:17:18;14.50;91.30
12819;DHT22;6474;53.474;9.894;2023-03-13T13:19:49;14.50;91.30
12819;DHT22;6474;53.474;9.894;2023-03-13T13:22:44;14.40;91.20
12819;DHT22;6474;53.474;9.894;2023-03-13T13:25:30;14.40;91.30
12819;DHT22;6474;53.474;9.894;2023-03-13T13:28:26;14.40;91.40
12819;DHT22;6474;53.474;9.894;2023-03-13T13:30:58;14.50;91.40
12819;DHT22;6474;53.474;9.894;2023-03-13T13:33:35;14.60;91.40
12819;DHT22;6474;53.474;9.894;2023-03-13T13:36:30;14.60;91.40
12819;DHT22;6474;53.474;9.894;2023-03-13T13:39:36;14.70;91.40
12819;DHT22;6474;53.474;9.894;2023-03-13T13:42:37;14.70;91.30
12819;DHT22;6474;53.474;9.894;2023-03-13T13:45:24;14.80;91.30
12819;DHT22;6474;53.474;9.894;2023-03-13T13:48:27;14.90;91.20
12819;DHT22;6474;53.474;9.894;2023-03-13T13:51:20;15.00;91.30
12819;DHT22;6474;53.474;9.894;2023-03-13T13:53:51;15.00;91.30
12819;DHT22;6474;53.474;9.894;2023-03-13T13:56:34;15.00;91.20
12819;DHT22;6474;53.474;9.894;2023-03-13T13:59:23;14.90;91.20
12819;DHT22;6474;53.474;9.894;2023-03-13T14:04:55;15.00;91.20
12819;DHT22;6474;53.474;9.894;2023-03-13T14:07:30;15.00;91.20
12819;DHT22;6474;53.474;9.894;2023-03-13T14:10:06;15.00;91.20
12819;DHT22;6474;53.474;9.894;2023-03-13T14:12:36;14.90;91.10
12819;DHT22;6474;53.474;9.894;2023-03-13T14:15:11;14.90;91.10
12819;DHT22;6474;53.474;9.894;2023-03-13T14:17:42;14.90;91.10
12819;DHT22;6474;53.474;9.894;2023-03-13T14:23:06;14.90;91.40
12819;DHT22;6474;53.474;9.894;2023-03-13T14:25:43;15.00;91.10
12819;DHT22;6474;53.474;9.894;2023-03-13T14:28:19;15.00;91.00
12819;DHT22;6474;53.474;9.894;2023-03-13T14:30:50;15.00;90.90
12819;DHT22;6474;53.474;9.894;2023-03-13T14:33:18;15.00;90.80
12819;DHT22;6474;53.474;9.894;2023-03-13T14:35:47;15.00;90.90
12819;DHT22;6474;53.474;9.894;2023-03-13T14:38:17;15.00;90.90
12819;DHT22;6474;53.474;9.894;2023-03-13T14:40:45;15.00;90.80
12819;DHT22;6474;53.474;9.894;2023-03-13T14:43:22;15.00;90.80
12819;DHT22;6474;53.474;9.894;2023-03-13T14:45:53;15.00;90.90
12819;DHT22;6474;53.474;9.894;2023-03-13T14:48:23;15.00;90.80
12819;DHT22;6474;53.474;9.894;2023-03-13T14:51:00;15.10;90.80
12819;DHT22;6474;53.474;9.894;2023-03-13T14:53:52;15.00;90.80
12819;DHT22;6474;53.474;9.894;2023-03-13T14:56:20;15.00;90.80
12819;DHT22;6474;53.474;9.894;2023-03-13T14:59:06;15.00;90.80
12819;DHT22;6474;53.474;9.894;2023-03-13T15:01:35;15.00;90.80
12819;DHT22;6474;53.474;9.894;2023-03-13T15:04:03;15.00;90.70
12819;DHT22;6474;53.474;9.894;2023-03-13T15:06:33;15.10;90.80
12819;DHT22;6474;53.474;9.894;2023-03-13T15:09:15;15.10;90.90
12819;DHT22;6474;53.474;9.894;2023-03-13T15:11:56;15.20;90.80
12819;DHT22;6474;53.474;9.894;2023-03-13T15:14:36;15.20;91.10
12819;DHT22;6474;53.474;9.894;2023-03-13T15:17:13;15.20;90.70
12819;DHT22;6474;53.474;9.894;2023-03-13T15:19:41;15.10;90.60
12819;DHT22;6474;53.474;9.894;2023-03-13T15:22:11;15.10;90.70
12819;DHT22;6474;53.474;9.894;2023-03-13T15:24:40;15.10;90.70
12819;DHT22;6474;53.474;9.894;2023-03-13T15:27:15;15.10;90.70
12819;DHT22;6474;53.474;9.894;2023-03-13T15:29:44;15.10;90.80
12819;DHT22;6474;53.474;9.894;2023-03-13T15:32:21;15.10;90.70
12819;DHT22;6474;53.474;9.894;2023-03-13T15:34:53;15.10;90.70
12819;DHT22;6474;53.474;9.894;2023-03-13T15:37:24;15.10;90.70
12819;DHT22;6474;53.474;9.894;2023-03-13T15:39:53;15.10;90.60
12819;DHT22;6474;53.474;9.894;2023-03-13T15:42:22;15.00;90.60
12819;DHT22;6474;53.474;9.894;2023-03-13T15:44:50;14.90;90.60
12819;DHT22;6474;53.474;9.894;2023-03-13T15:47:20;14.90;90.60
12819;DHT22;6474;53.474;9.894;2023-03-13T15:49:49;14.90;90.70
12819;DHT22;6474;53.474;9.894;2023-03-13T15:52:18;14.90;90.70
12819;DHT22;6474;53.474;9.894;2023-03-13T15:54:49;14.90;90.60
12819;DHT22;6474;53.474;9.894;2023-03-13T15:57:18;14.90;90.60
12819;DHT22;6474;53.474;9.894;2023-03-13T15:59:48;14.90;90.60
12819;DHT22;6474;53.474;9.894;2023-03-13T16:02:20;14.90;90.60
12819;DHT22;6474;53.474;9.894;2023-03-13T16:04:48;14.90;90.60
12819;DHT22;6474;53.474;9.894;2023-03-13T16:07:18;14.90;90.50
12819;DHT22;6474;53.474;9.894;2023-03-13T16:09:47;14.90;90.50
12819;DHT22;6474;53.474;9.894;2023-03-13T16:12:15;14.90;90.50
12819;DHT22;6474;53.474;9.894;2023-03-13T16:14:43;14.80;90.50
12819;DHT22;6474;53.474;9.894;2023-03-13T16:17:13;14.80;90.40
12819;DHT22;6474;53.474;9.894;2023-03-13T16:19:44;14.80;90.40
12819;DHT22;6474;53.474;9.894;2023-03-13T16:22:12;14.80;90.40
12819;DHT22;6474;53.474;9.894;2023-03-13T16:24:40;14.80;90.40
12819;DHT22;6474;53.474;9.894;2023-03-13T16:27:12;14.70;90.30
12819;DHT22;6474;53.474;9.894;2023-03-13T16:29:40;14.70;90.30
12819;DHT22;6474;53.474;9.894;2023-03-13T16:32:10;14.70;90.30
12819;DHT22;6474;53.474;9.894;2023-03-13T16:34:38;14.70;90.30
12819;DHT22;6474;53.474;9.894;2023-03-13T16:37:12;14.60;90.30
12819;DHT22;6474;53.474;9.894;2023-03-13T16:39:40;14.60;90.30